Time;durP1;ratioP1;P1;durP2;ratioP2;P2;SDS_P1;SDS_P2;PMS_P1;PMS_P2;Temp;Humidity;BMP_temperature;BMP_pressure;BME280_temperature;BME280_humidity;BME280_pressure;Samples;Min_cycle;Max_cycle;Signal;HPM_P1;HPM_P2
2022/07/30 00:01:26;;;;;;;0.00;0.00;;;;;;;14.47;95.10;101726.19;4966450;28;20538;-69
2022/07/30 00:03:51;;;;;;;0.00;0.00;;;;;;;14.45;95.21;101723.63;4965749;28;20027;-69
2022/07/30 00:06:17;;;;;;;0.00;0.00;;;;;;;14.45;95.18;101720.94;4959201;28;20383;-69
2022/07/30 00:08:42;;;;;;;0.03;0.03;;;;;;;14.40;95.16;101721.31;4964972;28;20038;-69
2022/07/30 00:11:08;;;;;;;0.00;0.00;;;;;;;14.34;95.18;101723.63;4962504;28;20086;-68
2022/07/30 00:13:33;;;;;;;0.00;0.00;;;;;;;14.31;95.80;101718.44;4963648;28;20065;-68
2022/07/30 00:15:59;;;;;;;0.00;0.00;;;;;;;14.26;95.91;101726.94;4969111;28;20477;-68
2022/07/30 00:18:24;;;;;;;0.00;0.00;;;;;;;14.14;96.24;101711.72;4967389;28;20033;-68
2022/07/30 00:20:49;;;;;;;0.00;0.00;;;;;;;14.11;97.03;101712.81;4965990;28;20061;-68
2022/07/30 00:23:15;;;;;;;0.00;0.00;;;;;;;14.20;96.47;101724.72;4965021;28;20121;-68
2022/07/30 00:25:40;;;;;;;0.00;0.00;;;;;;;14.19;96.25;101726.56;4966308;28;20517;-68
2022/07/30 00:28:05;;;;;;;0.00;0.00;;;;;;;14.03;96.82;101713.41;4959472;28;20378;-68
2022/07/30 00:30:31;;;;;;;0.00;0.00;;;;;;;14.09;97.00;101721.03;4975151;28;20035;-68
2022/07/30 00:32:56;;;;;;;0.00;0.00;;;;;;;13.85;96.37;101690.56;4962938;28;20073;-68
2022/07/30 00:35:21;;;;;;;0.10;0.10;;;;;;;14.08;97.01;101715.75;4960320;28;20075;-68
2022/07/30 00:37:46;;;;;;;0.00;0.00;;;;;;;13.94;97.08;101692.53;4963592;28;20117;-68
2022/07/30 00:40:12;;;;;;;0.03;0.03;;;;;;;14.13;96.89;101726.22;4960567;28;20027;-68
2022/07/30 00:42:45;;;;;;;0.00;0.00;;;;;;;14.00;96.15;101716.34;4962812;28;20030;-68
2022/07/30 00:45:12;;;;;;;0.00;0.00;;;;;;;14.12;95.89;101735.28;4962965;28;20022;-68
2022/07/30 00:47:38;;;;;;;0.00;0.00;;;;;;;14.13;95.69;101737.00;4963556;28;20030;-68
2022/07/30 00:50:06;;;;;;;0.00;0.00;;;;;;;14.11;95.90;101734.41;4959489;28;20019;-68
2022/07/30 00:52:32;;;;;;;0.00;0.00;;;;;;;14.05;95.53;101727.66;4963933;28;20366;-68
2022/07/30 00:54:58;;;;;;;0.10;0.10;;;;;;;14.05;96.26;101727.66;4965508;28;20142;-68
2022/07/30 00:57:24;;;;;;;0.00;0.00;;;;;;;14.05;96.26;101721.38;4961219;28;20034;-68
2022/07/30 00:59:49;;;;;;;0.08;0.08;;;;;;;14.00;96.44;101723.59;4958785;28;20034;-68
2022/07/30 01:02:14;;;;;;;0.00;0.00;;;;;;;13.94;96.77;101719.53;4960808;28;20034;-68
2022/07/30 01:04:40;;;;;;;0.00;0.00;;;;;;;13.85;97.13;101714.88;4960618;28;20050;-69
2022/07/30 01:07:05;;;;;;;0.08;0.08;;;;;;;13.71;97.33;101692.50;4960946;28;20061;-68
2022/07/30 01:09:30;;;;;;;0.05;0.05;;;;;;;13.79;97.90;101708.97;4961043;28;20031;-68
2022/07/30 01:11:56;;;;;;;0.00;0.00;;;;;;;13.74;98.48;101699.50;4961169;28;20117;-68
2022/07/30 01:14:21;;;;;;;0.00;0.00;;;;;;;13.73;98.71;101703.19;4961608;28;20027;-68
2022/07/30 01:16:47;;;;;;;0.00;0.00;;;;;;;13.71;99.43;101702.44;4962559;28;20382;-68
2022/07/30 01:22:16;;;;;;;0.05;0.05;;;;;;;13.79;98.09;101713.50;4960188;28;20085;-68
2022/07/30 01:24:45;;;;;;;0.00;0.00;;;;;;;13.77;98.54;101707.38;4962335;28;20039;-68
2022/07/30 01:27:12;;;;;;;0.00;0.00;;;;;;;13.70;97.72;101703.44;4955607;28;20026;-68
2022/07/30 01:29:38;;;;;;;0.00;0.00;;;;;;;13.76;98.05;101713.75;4957498;28;20165;-68
2022/07/30 01:32:06;;;;;;;0.00;0.00;;;;;;;13.72;97.64;101702.31;4967398;28;20537;-68
2022/07/30 01:34:33;;;;;;;0.00;0.00;;;;;;;13.87;98.48;101716.47;4956807;28;20041;-68
2022/07/30 01:36:59;;;;;;;0.00;0.00;;;;;;;14.01;100.00;101717.22;4964147;28;20077;-68
2022/07/30 01:39:25;;;;;;;0.00;0.00;;;;;;;14.14;100.00;101712.56;4957564;28;20085;-68
2022/07/30 01:41:52;;;;;;;0.00;0.00;;;;;;;14.22;100.00;101706.53;4969855;28;20490;-68
2022/07/30 01:44:18;;;;;;;0.00;0.00;;;;;;;14.23;100.00;101709.16;4962415;28;20502;-68
2022/07/30 01:46:45;;;;;;;0.00;0.00;;;;;;;14.21;100.00;101704.81;4970732;28;20031;-68
2022/07/30 01:49:11;;;;;;;0.03;0.03;;;;;;;14.13;98.89;101700.03;4963571;28;20419;-68
2022/07/30 01:51:37;;;;;;;0.00;0.00;;;;;;;14.01;97.60;101706.44;4961856;28;20069;-68
2022/07/30 01:54:06;;;;;;;0.00;0.00;;;;;;;13.97;97.33;101711.19;4979604;28;20034;-68
2022/07/30 01:56:31;;;;;;;0.00;0.00;;;;;;;13.91;97.25;101707.16;4962605;28;20542;-68
2022/07/30 01:58:57;;;;;;;0.00;0.00;;;;;;;13.84;97.67;101710.44;4968113;28;20034;-68
2022/07/30 02:01:23;;;;;;;0.10;0.10;;;;;;;13.80;98.34;101709.81;4963341;28;20303;-68
2022/07/30 02:03:48;;;;;;;0.10;0.10;;;;;;;13.79;98.00;101716.19;4959752;28;20042;-69
2022/07/30 02:06:19;;;;;;;0.00;0.00;;;;;;;13.73;98.18;101722.94;4966260;28;20069;-68
2022/07/30 02:08:50;;;;;;;0.00;0.00;;;;;;;13.70;98.23;101716.91;4962260;28;20566;-68
2022/07/30 02:12:27;;;;;;;0.00;0.00;;;;;;;13.70;98.37;101727.72;4959867;28;20050;-68
2022/07/30 02:14:17;;;;;;;0.03;0.03;;;;;;;13.53;98.49;101710.97;4966747;28;20541;-69
2022/07/30 02:16:43;;;;;;;0.00;0.00;;;;;;;13.64;97.92;101723.63;4970462;28;20429;-68
2022/07/30 02:19:15;;;;;;;0.00;0.00;;;;;;;13.61;97.93;101724.72;4961639;28;20031;-69
2022/07/30 02:21:44;;;;;;;0.00;0.00;;;;;;;13.60;97.97;101719.47;4961902;28;20106;-69
2022/07/30 02:24:13;;;;;;;0.00;0.00;;;;;;;13.59;97.60;101723.16;4962248;28;20029;-68
2022/07/30 02:26:40;;;;;;;0.00;0.00;;;;;;;13.57;97.70;101722.41;4967636;28;20113;-69
2022/07/30 02:29:07;;;;;;;0.00;0.00;;;;;;;13.56;97.76;101715.28;4962544;28;20038;-69
2022/07/30 02:31:33;;;;;;;0.00;0.00;;;;;;;13.48;97.21;101719.41;4959915;28;20030;-68
2022/07/30 02:34:00;;;;;;;0.00;0.00;;;;;;;13.49;98.00;101723.00;4963178;28;20037;-68
2022/07/30 02:36:26;;;;;;;0.00;0.00;;;;;;;13.48;97.98;101734.75;4963250;28;20058;-69
2022/07/30 02:38:52;;;;;;;0.00;0.00;;;;;;;13.41;98.01;101714.63;4964719;28;20471;-68
2022/07/30 02:41:19;;;;;;;0.00;0.00;;;;;;;13.42;99.21;101719.88;4968355;28;20470;-69
2022/07/30 02:43:47;;;;;;;0.00;0.00;;;;;;;13.31;98.65;101717.13;4971276;28;20054;-69
2022/07/30 02:46:13;;;;;;;0.00;0.00;;;;;;;13.31;99.01;101727.91;4970099;28;23140;-69
2022/07/30 02:48:39;;;;;;;0.00;0.00;;;;;;;13.24;98.64;101727.50;4968553;28;20566;-69
2022/07/30 02:51:06;;;;;;;0.00;0.00;;;;;;;13.22;99.33;101723.19;4969235;28;20035;-69
2022/07/30 02:53:32;;;;;;;0.00;0.00;;;;;;;13.18;99.02;101725.28;4971422;28;20571;-69
2022/07/30 02:55:59;;;;;;;0.10;0.10;;;;;;;13.15;98.69;101730.91;4967611;28;20035;-69
2022/07/30 02:58:25;;;;;;;0.10;0.10;;;;;;;13.17;99.39;101735.19;4984455;28;20029;-69
2022/07/30 03:00:52;;;;;;;0.00;0.00;;;;;;;13.31;100.00;101719.81;4964981;28;20026;-69
2022/07/30 03:03:19;;;;;;;0.10;0.10;;;;;;;13.22;100.00;101699.81;4967584;28;20034;-69
2022/07/30 03:05:45;;;;;;;0.00;0.00;;;;;;;13.41;100.00;101731.66;4956100;28;20490;-69
2022/07/30 03:08:11;;;;;;;0.10;0.10;;;;;;;13.33;99.08;101734.91;4964015;28;20039;-69
2022/07/30 03:10:37;;;;;;;0.00;0.00;;;;;;;13.14;98.74;101710.28;4962266;28;20031;-69
2022/07/30 03:13:06;;;;;;;0.00;0.00;;;;;;;13.19;98.87;101732.38;4966826;28;20035;-69
2022/07/30 03:15:33;;;;;;;0.00;0.00;;;;;;;13.11;98.84;101734.78;4961649;28;20041;-69
2022/07/30 03:17:59;;;;;;;0.03;0.03;;;;;;;13.05;99.74;101739.66;4964807;28;20031;-69
2022/07/30 03:20:27;;;;;;;0.00;0.00;;;;;;;13.01;99.05;101732.75;4965544;28;20045;-69
2022/07/30 03:22:53;;;;;;;0.08;0.08;;;;;;;12.95;98.92;101729.66;4964711;28;20050;-69
2022/07/30 03:25:22;;;;;;;0.00;0.00;;;;;;;12.96;98.90;101732.28;4963954;28;20510;-69
2022/07/30 03:27:48;;;;;;;0.00;0.00;;;;;;;12.92;97.80;101738.84;4963185;28;20023;-69
2022/07/30 03:30:14;;;;;;;0.10;0.10;;;;;;;12.89;97.77;101734.53;4967979;28;20478;-69
2022/07/30 03:32:40;;;;;;;0.00;0.00;;;;;;;12.88;97.39;101734.66;4966725;28;20161;-69
2022/07/30 03:35:07;;;;;;;0.10;0.10;;;;;;;12.79;97.14;101740.72;4962336;28;20022;-69
2022/07/30 03:37:34;;;;;;;0.00;0.00;;;;;;;12.72;97.68;101737.59;4961544;28;20054;-69
2022/07/30 03:40:00;;;;;;;0.00;0.00;;;;;;;12.65;97.65;101741.72;4964347;28;20030;-69
2022/07/30 03:42:26;;;;;;;0.10;0.10;;;;;;;12.53;97.94;101728.19;4962268;28;20426;-69
2022/07/30 03:44:52;;;;;;;0.00;0.00;;;;;;;12.63;98.71;101741.84;4960539;28;20426;-69
2022/07/30 03:47:18;;;;;;;0.00;0.00;;;;;;;12.60;98.56;101747.44;4963030;28;20027;-69
2022/07/30 03:49:44;;;;;;;0.00;0.00;;;;;;;12.45;98.42;101719.78;4965224;28;20122;-69
2022/07/30 03:52:09;;;;;;;0.00;0.00;;;;;;;12.33;98.18;101704.47;4964316;28;20023;-69
2022/07/30 03:54:35;;;;;;;0.00;0.00;;;;;;;12.48;98.52;101735.72;4964509;28;20031;-69
2022/07/30 03:57:02;;;;;;;0.00;0.00;;;;;;;12.44;98.68;101737.78;4967526;28;20391;-69
2022/07/30 03:59:28;;;;;;;0.00;0.00;;;;;;;12.38;98.31;101740.91;4966236;28;20054;-69
2022/07/30 04:01:58;;;;;;;0.10;0.10;;;;;;;12.29;98.47;101738.84;4961022;28;20512;-69
2022/07/30 04:04:24;;;;;;;0.00;0.00;;;;;;;12.28;98.61;101739.81;4970329;28;20379;-69
2022/07/30 04:06:49;;;;;;;0.10;0.10;;;;;;;12.24;98.60;101744.59;4961952;28;20026;-69
2022/07/30 04:09:15;;;;;;;0.00;0.00;;;;;;;12.18;98.84;101736.94;4964343;28;20587;-69
2022/07/30 04:11:40;;;;;;;0.00;0.00;;;;;;;12.16;98.64;101746.94;4961290;28;20448;-69
2022/07/30 04:14:05;;;;;;;0.00;0.00;;;;;;;12.21;99.44;101744.78;4964427;28;20551;-69
2022/07/30 04:16:45;;;;;;;0.10;0.10;;;;;;;12.22;99.35;101745.63;4966554;28;20419;-69
2022/07/30 04:19:27;;;;;;;0.00;0.00;;;;;;;12.13;99.04;101752.53;4960115;28;20443;-69
2022/07/30 04:21:53;;;;;;;0.38;0.15;;;;;;;12.11;99.23;101754.47;4957375;28;20491;-69
2022/07/30 04:24:18;;;;;;;0.08;0.08;;;;;;;11.99;98.81;101746.31;4959587;28;20049;-69
2022/07/30 04:26:45;;;;;;;0.10;0.10;;;;;;;12.06;99.45;101762.88;4965781;28;20034;-69
2022/07/30 04:29:10;;;;;;;0.00;0.00;;;;;;;12.06;99.43;101762.88;4959553;28;20035;-69
2022/07/30 04:31:36;;;;;;;0.00;0.00;;;;;;;11.96;99.43;101743.78;4964433;28;20038;-69
2022/07/30 04:34:02;;;;;;;0.10;0.10;;;;;;;12.23;100.00;101769.78;4963834;28;20787;-69
2022/07/30 04:36:28;;;;;;;0.00;0.00;;;;;;;12.30;100.00;101765.69;4976783;28;20039;-69
2022/07/30 04:38:54;;;;;;;0.10;0.10;;;;;;;12.37;100.00;101763.41;4962704;28;20026;-69
2022/07/30 04:41:19;;;;;;;0.10;0.10;;;;;;;12.33;100.00;101745.75;4960427;28;20061;-69
2022/07/30 04:43:45;;;;;;;0.00;0.00;;;;;;;12.55;100.00;101777.41;4964042;28;20046;-69
2022/07/30 04:46:10;;;;;;;0.00;0.00;;;;;;;12.62;99.77;101771.56;4964491;28;20046;-69
2022/07/30 04:48:35;;;;;;;0.00;0.00;;;;;;;12.50;99.84;101749.06;4960138;28;20050;-70
2022/07/30 04:51:04;;;;;;;0.10;0.10;;;;;;;12.66;100.00;101779.34;4960955;28;20038;-69
2022/07/30 04:53:30;;;;;;;0.00;0.00;;;;;;;12.65;100.00;101779.44;4965777;28;20114;-69
2022/07/30 04:55:58;;;;;;;0.00;0.00;;;;;;;12.70;100.00;101790.75;4962679;28;22365;-70
2022/07/30 04:58:24;;;;;;;0.00;0.00;;;;;;;12.77;100.00;101788.47;4965035;28;20264;-69
2022/07/30 05:00:51;;;;;;;0.00;0.00;;;;;;;12.80;100.00;101796.31;4964671;28;20038;-70
2022/07/30 05:03:16;;;;;;;0.10;0.10;;;;;;;12.86;100.00;101802.13;4950432;28;20041;-69
2022/07/30 05:05:41;;;;;;;0.00;0.00;;;;;;;12.89;100.00;101798.38;4966495;28;20031;-69
2022/07/30 05:08:08;;;;;;;0.10;0.10;;;;;;;13.00;100.00;101798.44;4961915;28;20018;-70
2022/07/30 05:10:33;;;;;;;0.00;0.00;;;;;;;13.05;100.00;101798.13;4962305;28;20715;-69
2022/07/30 05:12:58;;;;;;;0.00;0.00;;;;;;;13.17;100.00;101799.91;4966371;28;20046;-69
2022/07/30 05:15:24;;;;;;;0.10;0.10;;;;;;;13.28;100.00;101806.34;4963055;28;20109;-70
2022/07/30 05:17:50;;;;;;;0.00;0.00;;;;;;;13.37;100.00;101807.50;4962913;28;20030;-70
2022/07/30 05:20:15;;;;;;;0.00;0.00;;;;;;;13.47;100.00;101813.97;4963709;28;20045;-69
2022/07/30 05:22:40;;;;;;;0.05;0.05;;;;;;;13.57;100.00;101814.97;4962244;28;20104;-70
2022/07/30 05:25:06;;;;;;;0.00;0.00;;;;;;;13.73;100.00;101813.84;4958971;28;20066;-69
2022/07/30 05:27:31;;;;;;;0.10;0.10;;;;;;;13.91;100.00;101814.25;4962083;28;20023;-70
2022/07/30 05:29:56;;;;;;;0.05;0.05;;;;;;;14.07;100.00;101814.81;4964006;28;20050;-69
2022/07/30 05:32:22;;;;;;;0.10;0.10;;;;;;;14.23;100.00;101814.47;4959644;28;20066;-69
2022/07/30 05:34:47;;;;;;;0.00;0.00;;;;;;;14.35;100.00;101801.84;4959238;28;20111;-69
2022/07/30 05:37:12;;;;;;;0.10;0.10;;;;;;;14.47;100.00;101797.31;4961219;28;20438;-70
2022/07/30 05:39:38;;;;;;;0.10;0.10;;;;;;;14.72;100.00;101810.72;4961039;28;20022;-70
2022/07/30 05:42:03;;;;;;;0.00;0.00;;;;;;;14.86;100.00;101821.31;4958335;28;20031;-70
2022/07/30 05:44:28;;;;;;;0.10;0.10;;;;;;;14.97;100.00;101813.16;4962207;28;20042;-70
2022/07/30 05:46:54;;;;;;;0.08;0.08;;;;;;;15.04;100.00;101796.44;4960827;28;20048;-70
2022/07/30 05:49:19;;;;;;;0.10;0.10;;;;;;;15.27;100.00;101817.06;4961325;28;20434;-69
2022/07/30 05:51:44;;;;;;;0.10;0.10;;;;;;;15.41;99.58;101820.47;4961855;28;20550;-70
2022/07/30 05:54:10;;;;;;;0.10;0.10;;;;;;;15.54;100.00;101823.88;4955735;28;20484;-70
2022/07/30 05:56:36;;;;;;;0.03;0.03;;;;;;;15.69;99.87;101829.84;4958985;28;20436;-70
2022/07/30 05:59:01;;;;;;;0.00;0.00;;;;;;;15.83;100.00;101828.69;4958550;28;20530;-70
2022/07/30 06:01:27;;;;;;;0.10;0.10;;;;;;;15.99;99.44;101824.72;4959862;28;20038;-70
2022/07/30 06:03:52;;;;;;;0.10;0.10;;;;;;;16.11;98.64;101831.78;4956576;28;20268;-69
2022/07/30 06:06:18;;;;;;;0.10;0.10;;;;;;;16.21;97.96;101825.56;4955210;28;20073;-70
2022/07/30 06:08:43;;;;;;;0.10;0.10;;;;;;;16.35;97.58;101825.22;4956662;28;20093;-69
2022/07/30 06:11:08;;;;;;;0.00;0.00;;;;;;;16.44;97.67;101832.56;4954715;28;20041;-69
2022/07/30 06:13:34;;;;;;;0.00;0.00;;;;;;;16.57;97.25;101824.22;4957679;28;20113;-70
2022/07/30 06:16:00;;;;;;;0.10;0.10;;;;;;;16.68;97.47;101825.13;4960030;28;20126;-69
2022/07/30 06:18:25;;;;;;;0.00;0.00;;;;;;;16.81;97.05;101833.88;4959152;28;20069;-69
2022/07/30 06:20:52;;;;;;;0.00;0.00;;;;;;;16.91;97.08;101831.19;4964361;28;20383;-69
2022/07/30 06:23:19;;;;;;;0.05;0.05;;;;;;;17.01;96.77;101834.84;4968995;28;20058;-69
2022/07/30 06:25:44;;;;;;;0.10;0.10;;;;;;;17.11;96.66;101839.44;4966955;28;20049;-69
2022/07/30 06:28:09;;;;;;;0.00;0.00;;;;;;;17.23;97.04;101843.75;4962468;28;20378;-69
2022/07/30 06:30:35;;;;;;;0.00;0.00;;;;;;;17.30;95.89;101838.63;4962714;28;20114;-68
2022/07/30 06:33:00;;;;;;;0.00;0.00;;;;;;;17.43;95.78;101849.22;4963214;28;20367;-69
2022/07/30 06:35:25;;;;;;;0.00;0.00;;;;;;;17.37;94.74;101850.66;4959011;28;20041;-69
2022/07/30 06:37:51;;;;;;;0.00;0.00;;;;;;;17.52;94.76;101856.53;4963353;28;20062;-69
2022/07/30 06:40:16;;;;;;;0.00;0.00;;;;;;;17.54;94.49;101846.41;4960124;28;20113;-70
2022/07/30 06:42:41;;;;;;;0.00;0.00;;;;;;;17.52;93.75;101835.66;4959434;28;20026;-69
2022/07/30 06:45:08;;;;;;;0.00;0.00;;;;;;;17.64;93.12;101852.69;4959398;28;20481;-69
2022/07/30 06:47:34;;;;;;;0.00;0.00;;;;;;;17.76;92.77;101849.84;4959596;28;20026;-69
2022/07/30 06:50:00;;;;;;;0.00;0.00;;;;;;;17.92;92.84;101857.44;4960279;28;20317;-70
2022/07/30 06:52:26;;;;;;;0.00;0.00;;;;;;;18.09;92.63;101859.44;4958144;28;20462;-70
2022/07/30 06:54:51;;;;;;;0.00;0.00;;;;;;;18.16;91.09;101837.97;4970618;28;20074;-70
2022/07/30 06:57:16;;;;;;;0.00;0.00;;;;;;;18.50;89.78;101858.38;4958895;28;20549;-70
2022/07/30 06:59:42;;;;;;;0.00;0.00;;;;;;;18.66;88.65;101863.22;4956962;28;20035;-70
2022/07/30 07:02:07;;;;;;;0.00;0.00;;;;;;;18.78;87.87;101864.72;4963661;28;20038;-70
2022/07/30 07:04:33;;;;;;;0.03;0.03;;;;;;;18.80;86.26;101853.72;4959124;28;20393;-69
2022/07/30 07:06:58;;;;;;;0.00;0.00;;;;;;;18.71;85.87;101856.31;4964231;28;20209;-69
2022/07/30 07:09:24;;;;;;;0.00;0.00;;;;;;;18.67;85.84;101854.03;4957176;28;20035;-68
2022/07/30 07:11:49;;;;;;;0.00;0.00;;;;;;;18.68;84.11;101858.44;4960964;28;20034;-70
2022/07/30 07:14:15;;;;;;;0.00;0.00;;;;;;;18.34;84.76;101853.56;4962150;28;20063;-68
2022/07/30 07:16:40;;;;;;;0.00;0.00;;;;;;;18.26;85.96;101857.00;4961965;28;20119;-68
2022/07/30 07:19:05;;;;;;;0.00;0.00;;;;;;;18.52;86.60;101861.81;4961488;28;20462;-68
2022/07/30 07:21:31;;;;;;;0.00;0.00;;;;;;;18.77;84.81;101871.19;4961696;28;20443;-68
2022/07/30 07:23:59;;;;;;;0.00;0.00;;;;;;;18.90;83.17;101862.69;4963319;28;20371;-68
2022/07/30 07:26:24;;;;;;;0.10;0.10;;;;;;;19.09;82.71;101859.03;4962413;28;20058;-68
2022/07/30 07:28:49;;;;;;;0.00;0.00;;;;;;;19.38;82.38;101863.47;4970801;28;20058;-68
2022/07/30 07:31:15;;;;;;;0.00;0.00;;;;;;;19.37;79.95;101856.31;4967731;28;20066;-68
2022/07/30 07:33:41;;;;;;;0.00;0.00;;;;;;;19.33;80.72;101863.91;4966769;28;20039;-68
2022/07/30 07:36:07;;;;;;;0.00;0.00;;;;;;;19.43;80.68;101863.00;4970768;28;20030;-68
2022/07/30 07:38:33;;;;;;;0.00;0.00;;;;;;;19.56;79.29;101862.63;4965907;28;20030;-68
2022/07/30 07:40:58;;;;;;;0.00;0.00;;;;;;;19.77;78.48;101865.91;4967811;28;20053;-68
2022/07/30 07:43:25;;;;;;;0.00;0.00;;;;;;;19.78;77.57;101873.06;4970704;28;20470;-68
2022/07/30 07:45:50;;;;;;;0.00;0.00;;;;;;;19.96;77.45;101875.00;4968298;28;20026;-68
2022/07/30 07:48:16;;;;;;;0.00;0.00;;;;;;;20.12;77.29;101867.94;4968482;28;21314;-68
2022/07/30 07:50:42;;;;;;;0.00;0.00;;;;;;;20.20;76.40;101874.31;4964953;28;20082;-69
2022/07/30 07:53:07;;;;;;;0.00;0.00;;;;;;;20.29;75.94;101867.06;4955888;28;20569;-68
2022/07/30 07:55:32;;;;;;;0.00;0.00;;;;;;;20.23;77.43;101840.44;4958234;28;20541;-68
2022/07/30 07:57:57;;;;;;;0.00;0.00;;;;;;;20.51;76.10;101860.22;4974934;28;20058;-68
2022/07/30 08:00:23;;;;;;;0.00;0.00;;;;;;;20.53;73.22;101866.38;4960877;28;20031;-68
2022/07/30 08:02:48;;;;;;;0.00;0.00;;;;;;;20.31;72.47;101872.38;4961276;28;20041;-68
2022/07/30 08:05:14;;;;;;;0.00;0.00;;;;;;;20.24;73.44;101872.16;4959027;28;20034;-68
2022/07/30 08:07:41;;;;;;;0.00;0.00;;;;;;;20.32;71.18;101874.09;4965494;28;20108;-68
2022/07/30 08:10:07;;;;;;;0.00;0.00;;;;;;;20.45;72.60;101862.75;4966115;28;20062;-68
2022/07/30 08:12:32;;;;;;;0.00;0.00;;;;;;;20.45;71.12;101851.84;4962077;28;20580;-68
2022/07/30 08:14:58;;;;;;;0.00;0.00;;;;;;;20.54;72.08;101848.13;4959161;28;20031;-68
2022/07/30 08:17:23;;;;;;;0.00;0.00;;;;;;;20.72;72.58;101852.69;4960421;28;20439;-68
2022/07/30 08:19:48;;;;;;;0.00;0.00;;;;;;;20.93;71.99;101853.16;4956087;28;20109;-68
2022/07/30 08:22:14;;;;;;;0.00;0.00;;;;;;;21.12;73.04;101859.38;4976493;28;20048;-68
2022/07/30 08:24:39;;;;;;;0.00;0.00;;;;;;;21.16;69.46;101857.19;4960620;28;20085;-68
2022/07/30 08:27:05;;;;;;;0.00;0.00;;;;;;;21.02;68.13;101858.66;4965374;28;20034;-68
2022/07/30 08:29:30;;;;;;;0.00;0.00;;;;;;;21.01;67.75;101851.50;4960896;28;20427;-68
2022/07/30 08:31:55;;;;;;;0.00;0.00;;;;;;;21.04;67.74;101862.09;4964930;28;20134;-68
2022/07/30 08:34:21;;;;;;;0.00;0.00;;;;;;;21.10;68.16;101845.91;4961340;28;20035;-68
2022/07/30 08:36:46;;;;;;;0.00;0.00;;;;;;;21.20;69.25;101859.41;4964779;28;20034;-68
2022/07/30 08:39:11;;;;;;;0.00;0.00;;;;;;;21.41;65.75;101855.38;4958924;28;20525;-68
2022/07/30 08:41:37;;;;;;;0.00;0.00;;;;;;;21.18;66.35;101839.59;4956063;28;20085;-68
2022/07/30 08:44:03;;;;;;;0.00;0.00;;;;;;;21.25;65.61;101858.91;4961921;28;20030;-68
2022/07/30 08:46:30;;;;;;;0.00;0.00;;;;;;;21.02;66.53;101851.31;4963189;28;20039;-68
2022/07/30 08:48:55;;;;;;;0.00;0.00;;;;;;;21.23;64.70;101867.28;4963316;28;20031;-68
2022/07/30 08:51:22;;;;;;;0.00;0.00;;;;;;;21.09;64.30;101851.50;4961812;28;20036;-68
2022/07/30 08:53:47;;;;;;;0.00;0.00;;;;;;;21.15;67.20;101844.56;4963007;28;20035;-68
2022/07/30 08:56:13;;;;;;;0.00;0.00;;;;;;;21.48;67.45;101861.00;4967145;28;20045;-68
2022/07/30 08:58:38;;;;;;;0.00;0.00;;;;;;;21.59;64.40;101849.78;4963834;28;20035;-68
2022/07/30 09:01:04;;;;;;;0.00;0.00;;;;;;;21.63;64.67;101855.78;4958993;28;20028;-68
2022/07/30 09:03:31;;;;;;;0.10;0.10;;;;;;;21.77;63.13;101859.72;4959624;28;20114;-68
2022/07/30 09:05:56;;;;;;;0.00;0.00;;;;;;;21.85;64.19;101859.75;4964381;28;20039;-67
2022/07/30 09:08:22;;;;;;;0.00;0.00;;;;;;;22.12;63.84;101874.13;4958195;28;20529;-67
2022/07/30 09:10:47;;;;;;;0.00;0.00;;;;;;;22.25;62.26;101873.59;4957705;28;20594;-67
2022/07/30 09:13:30;;;;;;;0.08;0.08;;;;;;;22.37;60.20;101879.56;4964739;28;20042;-68
2022/07/30 09:15:56;;;;;;;0.00;0.00;;;;;;;22.23;60.95;101872.91;4965542;28;20094;-68
2022/07/30 09:18:32;;;;;;;0.00;0.00;;;;;;;22.15;61.69;101871.88;4964408;28;20027;-67
2022/07/30 09:21:12;;;;;;;0.00;0.00;;;;;;;22.23;61.35;101870.19;4957660;28;20034;-68
2022/07/30 09:23:38;;;;;;;0.00;0.00;;;;;;;22.26;60.50;101864.38;4963193;28;20062;-68
2022/07/30 09:26:03;;;;;;;0.00;0.00;;;;;;;22.39;59.60;101861.09;4956190;28;20138;-68
2022/07/30 09:28:31;;;;;;;0.00;0.00;;;;;;;22.46;59.12;101864.91;4959442;28;20073;-69
2022/07/30 09:30:57;;;;;;;0.00;0.00;;;;;;;22.37;60.94;101866.75;4959236;28;20035;-68
2022/07/30 09:33:35;;;;;;;0.10;0.10;;;;;;;22.60;60.62;101869.63;4959971;28;20034;-69
2022/07/30 09:36:01;;;;;;;0.00;0.00;;;;;;;22.75;61.51;101874.41;4961140;28;20058;-68
2022/07/30 09:38:28;;;;;;;0.00;0.00;;;;;;;22.65;60.39;101860.91;4963493;28;20031;-68
2022/07/30 09:40:55;;;;;;;0.00;0.00;;;;;;;22.96;59.38;101872.97;4959556;28;20035;-68
2022/07/30 09:43:21;;;;;;;0.00;0.00;;;;;;;23.13;58.96;101865.53;4965703;28;20038;-68
2022/07/30 09:45:54;;;;;;;0.00;0.00;;;;;;;23.22;58.94;101864.47;4965883;28;20064;-68
2022/07/30 09:48:25;;;;;;;0.03;0.00;;;;;;;23.45;56.33;101861.81;4961296;28;20022;-69
2022/07/30 09:50:51;;;;;;;0.00;0.00;;;;;;;23.47;56.36;101864.34;4964057;28;20048;-68
2022/07/30 09:53:17;;;;;;;0.00;0.00;;;;;;;23.51;57.31;101866.56;4963707;28;20498;-68
2022/07/30 09:55:42;;;;;;;0.00;0.00;;;;;;;23.52;53.68;101857.31;4969616;28;20034;-68
2022/07/30 09:58:09;;;;;;;0.00;0.00;;;;;;;23.52;55.20;101875.63;4964557;28;20031;-68
2022/07/30 10:00:35;;;;;;;0.00;0.00;;;;;;;23.75;54.96;101875.66;4959609;28;20380;-68
2022/07/30 10:03:13;;;;;;;0.00;0.00;;;;;;;23.83;54.35;101869.25;4966097;28;20109;-68
2022/07/30 10:05:49;;;;;;;0.00;0.00;;;;;;;23.99;50.67;101870.19;4962311;28;20026;-68
2022/07/30 10:08:14;;;;;;;0.00;0.00;;;;;;;24.09;52.68;101841.50;4961377;28;20022;-68
2022/07/30 10:10:39;;;;;;;0.00;0.00;;;;;;;24.14;55.25;101862.00;4963651;28;20065;-69
2022/07/30 10:13:07;;;;;;;0.00;0.00;;;;;;;24.37;52.83;101848.25;4963613;28;20062;-66
2022/07/30 10:15:34;;;;;;;0.00;0.00;;;;;;;23.93;50.51;101858.91;4960631;28;20030;-69
2022/07/30 10:18:01;;;;;;;0.00;0.00;;;;;;;24.09;53.28;101860.69;4963836;28;20031;-69
2022/07/30 10:20:26;;;;;;;0.00;0.00;;;;;;;24.33;53.91;101858.75;4959443;28;20038;-66
2022/07/30 10:22:52;;;;;;;0.00;0.00;;;;;;;24.32;54.34;101851.56;4963362;28;20022;-66
2022/07/30 10:25:21;;;;;;;0.00;0.00;;;;;;;24.46;52.89;101833.41;4959424;28;20038;-67
2022/07/30 10:27:48;;;;;;;0.00;0.00;;;;;;;25.04;50.28;101849.22;4966686;28;20481;-66
2022/07/30 10:30:13;;;;;;;0.00;0.00;;;;;;;25.11;49.25;101838.31;4958375;28;20023;-68
2022/07/30 10:32:39;;;;;;;0.00;0.00;;;;;;;25.09;50.07;101849.50;4961440;28;20031;-68
2022/07/30 10:35:05;;;;;;;0.00;0.00;;;;;;;24.93;46.88;101856.03;4964294;28;20038;-70
2022/07/30 10:37:33;;;;;;;0.00;0.00;;;;;;;25.06;48.94;101846.28;4966850;28;20042;-67
2022/07/30 10:40:21;;;;;;;0.00;0.00;;;;;;;25.66;46.17;101855.25;4958373;28;20027;-66
2022/07/30 10:43:05;;;;;;;0.00;0.00;;;;;;;25.72;47.77;101859.97;4965824;28;20030;-68
2022/07/30 10:45:48;;;;;;;0.00;0.00;;;;;;;25.79;46.87;101851.78;4967482;28;20141;-66
2022/07/30 10:48:14;;;;;;;0.00;0.00;;;;;;;26.19;47.87;101854.94;4961022;28;20042;-66
2022/07/30 10:50:51;;;;;;;0.00;0.00;;;;;;;26.36;47.18;101857.38;4956223;28;20110;-66
2022/07/30 10:53:35;;;;;;;0.00;0.00;;;;;;;26.47;45.44;101855.97;4961868;28;20023;-69
2022/07/30 10:56:14;;;;;;;0.00;0.00;;;;;;;26.74;44.01;101847.88;4960873;28;20031;-66
2022/07/30 10:59:01;;;;;;;0.00;0.00;;;;;;;26.59;44.64;101851.63;4960640;28;20035;-66
2022/07/30 11:01:48;;;;;;;0.00;0.00;;;;;;;27.01;43.85;101842.53;4964294;28;20034;-66
2022/07/30 11:04:21;;;;;;;0.00;0.00;;;;;;;27.02;46.15;101845.06;4969373;28;20045;-66
2022/07/30 11:06:47;;;;;;;;;;;;;;;27.20;44.73;101851.94;4970769;28;20015;-66
2022/07/30 11:09:36;;;;;;;0.00;0.00;;;;;;;27.39;43.59;101847.56;4967227;28;19953;-66
2022/07/30 11:12:03;;;;;;;0.00;0.00;;;;;;;27.66;43.18;101844.88;4965287;28;20057;-71
2022/07/30 11:14:46;;;;;;;0.00;0.00;;;;;;;27.78;43.81;101848.72;4966511;28;20031;-66
2022/07/30 11:17:13;;;;;;;0.00;0.00;;;;;;;28.07;43.43;101846.59;4962610;28;20023;-66
2022/07/30 11:20:04;;;;;;;0.00;0.00;;;;;;;28.44;44.94;101857.22;4961965;28;20450;-66
2022/07/30 11:22:37;;;;;;;0.00;0.00;;;;;;;28.42;41.14;101851.94;4961791;28;20126;-66
2022/07/30 11:25:08;;;;;;;0.00;0.00;;;;;;;28.44;40.92;101824.94;4956720;28;20420;-67
2022/07/30 11:27:41;;;;;;;0.00;0.00;;;;;;;28.42;43.25;101840.00;4957533;28;20113;-66